Time;durP1;ratioP1;P1;durP2;ratioP2;P2;SDS_P1;SDS_P2;PMS_P1;PMS_P2;Temp;Humidity;BMP_temperature;BMP_pressure;BME280_temperature;BME280_humidity;BME280_pressure;Samples;Min_cycle;Max_cycle;Signal;HPM_P1;HPM_P2
2023/06/20 00:02:03;;;;;;;8.98;8.20;;;;;;;;;;5077905;28;20269;-63
2023/06/20 00:04:31;;;;;;;8.68;7.97;;;;;;;;;;5077866;28;20207;-63
2023/06/20 00:06:59;;;;;;;9.05;8.35;;;;;;;;;;5078187;28;20204;-64
2023/06/20 00:09:27;;;;;;;8.77;8.18;;;;;;;;;;5077627;28;20205;-63
2023/06/20 00:11:56;;;;;;;9.02;8.38;;;;;;;;;;5077791;28;20208;-63
2023/06/20 00:14:24;;;;;;;8.85;8.05;;;;;;;;;;5077268;28;20228;-63
2023/06/20 00:16:58;;;;;;;9.38;8.70;;;;;;;;;;5077608;28;20201;-63
2023/06/20 00:19:26;;;;;;;9.02;8.43;;;;;;;;;;5077882;28;20208;-63
2023/06/20 00:21:53;;;;;;;8.95;8.32;;;;;;;;;;5077182;28;20265;-63
2023/06/20 00:24:21;;;;;;;8.80;8.10;;;;;;;;;;5077555;28;20212;-63
2023/06/20 00:26:49;;;;;;;8.82;8.20;;;;;;;;;;5077182;28;20258;-63
2023/06/20 00:29:18;;;;;;;8.38;7.78;;;;;;;;;;5077570;28;20212;-63
2023/06/20 00:31:46;;;;;;;8.80;8.15;;;;;;;;;;5077421;28;20214;-63
2023/06/20 00:34:15;;;;;;;8.20;7.60;;;;;;;;;;5069619;28;20494;-63
2023/06/20 00:36:43;;;;;;;8.02;7.43;;;;;;;;;;5077412;28;20240;-63
2023/06/20 00:39:11;;;;;;;8.68;7.97;;;;;;;;;;5097266;28;20203;-63
2023/06/20 00:41:40;;;;;;;8.70;7.90;;;;;;;;;;5097752;28;20203;-63
2023/06/20 00:44:08;;;;;;;8.35;7.75;;;;;;;;;;5097440;28;20211;-63
2023/06/20 00:46:39;;;;;;;8.32;7.63;;;;;;;;;;5097651;28;20280;-63
2023/06/20 00:49:08;;;;;;;8.27;7.57;;;;;;;;;;5097337;28;20207;-63
2023/06/20 00:51:36;;;;;;;8.55;7.85;;;;;;;;;;5097175;28;20211;-63
2023/06/20 00:54:04;;;;;;;8.60;8.00;;;;;;;;;;5097254;28;20223;-63
2023/06/20 00:56:32;;;;;;;8.45;7.70;;;;;;;;;;5097349;28;20290;-63
2023/06/20 00:59:00;;;;;;;8.57;7.88;;;;;;;;;;5097018;28;20496;-63
2023/06/20 01:01:31;;;;;;;9.80;8.93;;;;;;;;;;5097466;28;20243;-63
2023/06/20 01:04:01;;;;;;;8.88;8.27;;;;;;;;;;5097620;28;20254;-63
2023/06/20 01:06:33;;;;;;;9.10;8.27;;;;;;;;;;5097428;28;20207;-63
2023/06/20 01:09:07;;;;;;;9.40;8.63;;;;;;;;;;5097982;28;20461;-63
2023/06/20 01:11:37;;;;;;;9.90;9.10;;;;;;;;;;5097340;28;20231;-64
2023/06/20 01:14:11;;;;;;;9.50;8.80;;;;;;;;;;5097324;28;20676;-63
2023/06/20 01:16:42;;;;;;;9.27;8.57;;;;;;;;;;5096964;28;20203;-63
2023/06/20 01:19:17;;;;;;;9.45;8.75;;;;;;;;;;5097382;28;20208;-63
2023/06/20 01:21:47;;;;;;;9.07;8.38;;;;;;;;;;5097366;28;20211;-63
2023/06/20 01:24:20;;;;;;;9.05;8.27;;;;;;;;;;5097383;28;20216;-63
2023/06/20 01:26:50;;;;;;;9.23;8.52;;;;;;;;;;5097455;28;20272;-64
2023/06/20 01:29:20;;;;;;;9.50;8.65;;;;;;;;;;5097526;28;20214;-63
2023/06/20 01:31:51;;;;;;;8.98;8.38;;;;;;;;;;5097363;28;20222;-63
2023/06/20 01:34:21;;;;;;;9.00;8.40;;;;;;;;;;5097351;28;20581;-63
2023/06/20 01:36:51;;;;;;;9.73;9.02;;;;;;;;;;5097079;28;20566;-63
2023/06/20 01:39:23;;;;;;;9.43;8.63;;;;;;;;;;5097272;28;20266;-63
2023/06/20 01:41:51;;;;;;;9.05;8.40;;;;;;;;;;5097170;28;20246;-63
2023/06/20 01:44:19;;;;;;;9.63;9.00;;;;;;;;;;5096927;28;20204;-63
2023/06/20 01:46:48;;;;;;;9.50;8.85;;;;;;;;;;5096974;28;20254;-63
2023/06/20 01:49:17;;;;;;;9.95;9.15;;;;;;;;;;5097015;28;20200;-63
2023/06/20 01:51:46;;;;;;;9.77;8.98;;;;;;;;;;5096670;28;20560;-63
2023/06/20 01:54:14;;;;;;;9.68;8.88;;;;;;;;;;5096823;28;20314;-63
2023/06/20 01:56:44;;;;;;;9.20;8.40;;;;;;;;;;5098568;28;20214;-63
2023/06/20 01:59:13;;;;;;;9.82;9.02;;;;;;;;;;5092448;28;20594;-63
2023/06/20 02:01:42;;;;;;;9.93;9.23;;;;;;;;;;5100985;28;20218;-63
2023/06/20 02:04:11;;;;;;;9.20;8.40;;;;;;;;;;5100628;28;20290;-63
2023/06/20 02:06:41;;;;;;;8.77;8.07;;;;;;;;;;5100681;28;20214;-63
2023/06/20 02:09:08;;;;;;;9.48;8.80;;;;;;;;;;5100815;28;20214;-63
2023/06/20 02:11:36;;;;;;;9.07;8.43;;;;;;;;;;5100496;28;20291;-63
2023/06/20 02:14:07;;;;;;;9.50;8.80;;;;;;;;;;5100496;28;20234;-63
2023/06/20 02:16:36;;;;;;;9.40;8.70;;;;;;;;;;5100470;28;20268;-63
2023/06/20 02:19:06;;;;;;;9.25;8.52;;;;;;;;;;5100285;28;20214;-63
2023/06/20 02:21:34;;;;;;;9.30;8.60;;;;;;;;;;5100532;28;20298;-63
2023/06/20 02:24:03;;;;;;;9.98;9.18;;;;;;;;;;5100359;28;20214;-63
2023/06/20 02:26:32;;;;;;;9.40;8.57;;;;;;;;;;5099827;28;20286;-63
2023/06/20 02:29:01;;;;;;;9.13;8.43;;;;;;;;;;5100125;28;20284;-63
2023/06/20 02:31:33;;;;;;;9.40;8.60;;;;;;;;;;5100223;28;20203;-63
2023/06/20 02:34:04;;;;;;;8.95;8.35;;;;;;;;;;5100251;28;20545;-63
2023/06/20 02:36:32;;;;;;;9.48;8.77;;;;;;;;;;5099985;28;20639;-64
2023/06/20 02:39:00;;;;;;;9.15;8.52;;;;;;;;;;5099932;28;20208;-63
2023/06/20 02:41:28;;;;;;;9.48;8.75;;;;;;;;;;5099874;28;20257;-63
2023/06/20 02:43:56;;;;;;;9.63;8.82;;;;;;;;;;5099775;28;20203;-63
2023/06/20 02:46:31;;;;;;;9.23;8.52;;;;;;;;;;5099801;28;20286;-63
2023/06/20 02:49:08;;;;;;;9.13;8.32;;;;;;;;;;5099688;28;20648;-63
2023/06/20 02:51:39;;;;;;;9.18;8.48;;;;;;;;;;5100064;28;20243;-63
2023/06/20 02:54:10;;;;;;;9.02;8.43;;;;;;;;;;5099361;28;20226;-63
2023/06/20 02:56:40;;;;;;;8.88;8.27;;;;;;;;;;5099557;28;20253;-63
2023/06/20 02:59:08;;;;;;;8.73;7.97;;;;;;;;;;5099408;28;20207;-63
2023/06/20 03:01:37;;;;;;;9.25;8.55;;;;;;;;;;5099315;28;20210;-63
2023/06/20 03:04:08;;;;;;;8.57;7.97;;;;;;;;;;5099539;28;20650;-64
2023/06/20 03:06:37;;;;;;;8.45;7.85;;;;;;;;;;5099113;28;20211;-64
2023/06/20 03:09:06;;;;;;;8.98;8.07;;;;;;;;;;5098827;28;20268;-63
2023/06/20 03:11:33;;;;;;;9.13;8.43;;;;;;;;;;5098570;28;20210;-63
2023/06/20 03:14:03;;;;;;;9.35;8.65;;;;;;;;;;5098751;28;20645;-63
2023/06/20 03:16:31;;;;;;;8.90;8.30;;;;;;;;;;5098816;28;20207;-64
2023/06/20 03:19:00;;;;;;;9.18;8.48;;;;;;;;;;5099267;28;20554;-63
2023/06/20 03:21:29;;;;;;;9.32;8.68;;;;;;;;;;5098701;28;20241;-63
2023/06/20 03:23:57;;;;;;;9.95;9.15;;;;;;;;;;5098819;28;20211;-64
2023/06/20 03:26:25;;;;;;;9.70;8.90;;;;;;;;;;5098637;28;20200;-63
2023/06/20 03:28:52;;;;;;;9.65;8.85;;;;;;;;;;5098748;28;20207;-63
2023/06/20 03:31:19;;;;;;;9.52;8.82;;;;;;;;;;5099011;28;20203;-63
2023/06/20 03:33:47;;;;;;;9.65;8.77;;;;;;;;;;5098458;28;20601;-63
2023/06/20 03:36:15;;;;;;;9.77;9.07;;;;;;;;;;5098037;28;20330;-63
2023/06/20 03:38:44;;;;;;;9.57;8.77;;;;;;;;;;5098411;28;20253;-63
2023/06/20 03:41:12;;;;;;;9.20;8.50;;;;;;;;;;5098403;28;20302;-63
2023/06/20 03:43:39;;;;;;;9.43;8.80;;;;;;;;;;5098556;28;20290;-63
2023/06/20 03:46:06;;;;;;;9.80;9.00;;;;;;;;;;5098423;28;20207;-63
2023/06/20 03:48:34;;;;;;;9.35;8.65;;;;;;;;;;5098346;28;20295;-63
2023/06/20 03:51:01;;;;;;;9.73;9.02;;;;;;;;;;5098412;28;20496;-63
2023/06/20 03:53:29;;;;;;;9.40;8.65;;;;;;;;;;5097798;28;20294;-63
2023/06/20 03:55:58;;;;;;;9.45;8.85;;;;;;;;;;5097627;28;20227;-63
2023/06/20 03:58:25;;;;;;;10.02;9.23;;;;;;;;;;5098005;28;20473;-63
2023/06/20 04:00:52;;;;;;;9.90;9.10;;;;;;;;;;5097750;28;20609;-63
2023/06/20 04:03:20;;;;;;;9.20;8.60;;;;;;;;;;5097877;28;20246;-63
2023/06/20 04:05:47;;;;;;;9.82;9.10;;;;;;;;;;5097771;28;20583;-63
2023/06/20 04:08:14;;;;;;;9.55;8.85;;;;;;;;;;5097549;28;20204;-63
2023/06/20 04:10:42;;;;;;;9.90;9.10;;;;;;;;;;5097920;28;20553;-63
2023/06/20 04:13:11;;;;;;;9.60;8.90;;;;;;;;;;5098031;28;20202;-63
2023/06/20 04:15:38;;;;;;;9.77;9.07;;;;;;;;;;5097465;28;20227;-63
2023/06/20 04:18:06;;;;;;;9.73;8.98;;;;;;;;;;5097746;28;20246;-63
2023/06/20 04:20:33;;;;;;;9.77;8.98;;;;;;;;;;5097338;28;20208;-63
2023/06/20 04:23:01;;;;;;;9.45;8.65;;;;;;;;;;5097217;28;20242;-63
2023/06/20 04:25:28;;;;;;;9.05;8.45;;;;;;;;;;5097096;28;20206;-63
2023/06/20 04:27:57;;;;;;;9.50;8.77;;;;;;;;;;5097129;28;20249;-63
2023/06/20 04:30:25;;;;;;;9.38;8.57;;;;;;;;;;5097432;28;20203;-63
2023/06/20 04:32:53;;;;;;;10.02;9.23;;;;;;;;;;5097087;28;20303;-63
2023/06/20 04:35:20;;;;;;;9.77;8.98;;;;;;;;;;5096758;28;20630;-64
2023/06/20 04:37:51;;;;;;;9.23;8.63;;;;;;;;;;5096752;28;20326;-64
2023/06/20 04:40:19;;;;;;;9.85;9.05;;;;;;;;;;5096559;28;20246;-63
2023/06/20 04:42:46;;;;;;;9.63;8.93;;;;;;;;;;5096340;28;20196;-63
2023/06/20 04:45:14;;;;;;;9.93;9.00;;;;;;;;;;5088609;28;20200;-63
2023/06/20 04:47:42;;;;;;;9.98;9.07;;;;;;;;;;5096655;28;20206;-63
2023/06/20 04:50:10;;;;;;;9.60;8.93;;;;;;;;;;5096813;28;20639;-64
2023/06/20 04:52:37;;;;;;;9.23;8.60;;;;;;;;;;5095711;28;20243;-63
2023/06/20 04:55:05;;;;;;;9.52;8.80;;;;;;;;;;5095679;28;20226;-63
2023/06/20 04:57:33;;;;;;;9.52;8.77;;;;;;;;;;5095585;28;20298;-64
2023/06/20 05:00:02;;;;;;;9.40;8.60;;;;;;;;;;5094608;28;20199;-63
2023/06/20 05:02:30;;;;;;;9.95;9.15;;;;;;;;;;5095717;28;20204;-63
2023/06/20 05:04:59;;;;;;;10.05;9.35;;;;;;;;;;5094945;28;20549;-63
2023/06/20 05:07:26;;;;;;;9.52;8.73;;;;;;;;;;5094308;28;20203;-63
2023/06/20 05:09:54;;;;;;;9.50;8.70;;;;;;;;;;5095007;28;20299;-63
2023/06/20 05:12:21;;;;;;;10.15;9.35;;;;;;;;;;5094507;28;20195;-63
2023/06/20 05:14:48;;;;;;;10.32;9.45;;;;;;;;;;5094237;28;20199;-63
2023/06/20 05:17:16;;;;;;;9.50;8.80;;;;;;;;;;5093657;28;20670;-63
2023/06/20 05:19:44;;;;;;;9.73;9.05;;;;;;;;;;5094978;28;20621;-64
2023/06/20 05:22:13;;;;;;;9.70;9.00;;;;;;;;;;5085391;28;20203;-64
2023/06/20 05:24:40;;;;;;;9.45;8.65;;;;;;;;;;5095057;28;20587;-64
2023/06/20 05:27:08;;;;;;;9.65;8.95;;;;;;;;;;5094573;28;20285;-64
2023/06/20 05:29:36;;;;;;;9.73;8.93;;;;;;;;;;5093853;28;20283;-64
2023/06/20 05:32:04;;;;;;;8.73;8.02;;;;;;;;;;5096493;28;20286;-63
2023/06/20 05:34:32;;;;;;;9.05;8.45;;;;;;;;;;5098400;28;20211;-64
2023/06/20 05:37:00;;;;;;;9.00;8.30;;;;;;;;;;5098399;28;20684;-64
2023/06/20 05:39:29;;;;;;;9.05;8.35;;;;;;;;;;5098274;28;20203;-64
2023/06/20 05:41:56;;;;;;;8.98;8.27;;;;;;;;;;5097826;28;20290;-64
2023/06/20 05:44:24;;;;;;;9.40;8.70;;;;;;;;;;5097559;28;20199;-64
2023/06/20 05:46:53;;;;;;;9.70;8.98;;;;;;;;;;5097761;28;20290;-64
2023/06/20 05:49:21;;;;;;;10.93;10.02;;;;;;;;;;5097910;28;20418;-64
2023/06/20 05:51:48;;;;;;;11.07;10.25;;;;;;;;;;5098626;28;20537;-64
2023/06/20 05:54:16;;;;;;;10.55;9.75;;;;;;;;;;5098360;28;20250;-64
2023/06/20 05:56:45;;;;;;;10.60;9.77;;;;;;;;;;5097778;28;20220;-64
2023/06/20 05:59:13;;;;;;;10.63;9.82;;;;;;;;;;5098216;28;20583;-64
2023/06/20 06:01:41;;;;;;;9.90;9.10;;;;;;;;;;5098224;28;20219;-64
2023/06/20 06:04:08;;;;;;;9.75;9.05;;;;;;;;;;5096913;28;20215;-64
2023/06/20 06:06:36;;;;;;;10.18;9.40;;;;;;;;;;5098366;28;20200;-64
2023/06/20 06:09:04;;;;;;;10.82;9.77;;;;;;;;;;5097926;28;20507;-64
2023/06/20 06:11:31;;;;;;;11.10;10.20;;;;;;;;;;5097823;28;20235;-64
2023/06/20 06:14:00;;;;;;;11.57;10.57;;;;;;;;;;5097358;28;20294;-64
2023/06/20 06:16:28;;;;;;;13.10;12.05;;;;;;;;;;5097559;28;20604;-64
2023/06/20 06:18:55;;;;;;;15.18;13.93;;;;;;;;;;5097515;28;20200;-64
2023/06/20 06:21:23;;;;;;;17.88;16.27;;;;;;;;;;5098331;28;20210;-64
2023/06/20 06:23:50;;;;;;;19.25;17.52;;;;;;;;;;5098103;28;20204;-64
2023/06/20 06:26:18;;;;;;;20.40;18.60;;;;;;;;;;5097881;28;20298;-64
2023/06/20 06:28:45;;;;;;;21.70;19.83;;;;;;;;;;5099195;28;20254;-64
2023/06/20 06:31:17;;;;;;;21.60;19.65;;;;;;;;;;5098956;28;20287;-64
2023/06/20 06:33:44;;;;;;;22.48;20.35;;;;;;;;;;5098202;28;20203;-64
2023/06/20 06:36:13;;;;;;;23.00;20.95;;;;;;;;;;5089279;28;20314;-64
2023/06/20 06:38:48;;;;;;;21.48;19.60;;;;;;;;;;5097825;28;20236;-64
2023/06/20 06:41:37;;;;;;;21.50;19.52;;;;;;;;;;5097579;28;20210;-64
2023/06/20 06:44:05;;;;;;;21.73;19.73;;;;;;;;;;5097367;28;20213;-64
2023/06/20 06:46:34;;;;;;;20.77;18.83;;;;;;;;;;5097494;28;20219;-64
2023/06/20 06:49:02;;;;;;;20.85;18.95;;;;;;;;;;5097670;28;20587;-64
2023/06/20 06:51:29;;;;;;;19.77;17.95;;;;;;;;;;5097150;28;20204;-64
2023/06/20 06:53:57;;;;;;;18.33;16.83;;;;;;;;;;5097328;28;20206;-64
2023/06/20 06:56:24;;;;;;;18.67;17.02;;;;;;;;;;5097780;28;20627;-64
2023/06/20 06:58:56;;;;;;;16.40;15.00;;;;;;;;;;5097081;28;20207;-64
2023/06/20 07:01:23;;;;;;;16.48;15.07;;;;;;;;;;5097568;28;20220;-64
2023/06/20 07:03:52;;;;;;;15.63;14.32;;;;;;;;;;5097503;28;20200;-64
2023/06/20 07:06:20;;;;;;;15.50;14.18;;;;;;;;;;5097572;28;20265;-64
2023/06/20 07:08:48;;;;;;;15.73;14.32;;;;;;;;;;5096672;28;20496;-64
2023/06/20 07:11:16;;;;;;;15.02;13.65;;;;;;;;;;5097190;28;20202;-64
2023/06/20 07:13:44;;;;;;;13.48;12.32;;;;;;;;;;5097246;28;20213;-64
2023/06/20 07:16:11;;;;;;;14.40;13.20;;;;;;;;;;5096745;28;20522;-64
2023/06/20 07:18:39;;;;;;;12.90;11.88;;;;;;;;;;5096811;28;20294;-63
2023/06/20 07:21:08;;;;;;;12.88;11.77;;;;;;;;;;5097187;28;20295;-63
2023/06/20 07:23:35;;;;;;;12.98;11.90;;;;;;;;;;5097535;28;20787;-63
2023/06/20 07:26:03;;;;;;;11.80;10.70;;;;;;;;;;5096578;28;20658;-63
2023/06/20 07:28:30;;;;;;;11.63;10.63;;;;;;;;;;5097468;28;20605;-64
2023/06/20 07:30:57;;;;;;;12.75;11.73;;;;;;;;;;5097359;28;20242;-64
2023/06/20 07:33:25;;;;;;;12.18;11.18;;;;;;;;;;5097446;28;20204;-63
2023/06/20 07:35:52;;;;;;;11.25;10.35;;;;;;;;;;5096102;28;20314;-63
2023/06/20 07:38:21;;;;;;;11.98;11.07;;;;;;;;;;5097311;28;20338;-64
2023/06/20 07:40:49;;;;;;;11.48;10.50;;;;;;;;;;5096974;28;20587;-63
2023/06/20 07:43:17;;;;;;;11.25;10.45;;;;;;;;;;5097003;28;20204;-63
2023/06/20 07:45:44;;;;;;;11.63;10.38;;;;;;;;;;5095967;28;20204;-63
2023/06/20 07:48:12;;;;;;;11.55;10.65;;;;;;;;;;5088338;28;20242;-64
2023/06/20 07:50:39;;;;;;;11.48;10.57;;;;;;;;;;5096467;28;20210;-63
2023/06/20 07:53:07;;;;;;;12.07;11.20;;;;;;;;;;5095826;28;20483;-63
2023/06/20 07:55:38;;;;;;;11.23;10.40;;;;;;;;;;5094676;28;20666;-71
2023/06/20 07:58:05;;;;;;;11.70;10.80;;;;;;;;;;5096375;28;20199;-63
2023/06/20 08:00:33;;;;;;;11.90;10.90;;;;;;;;;;5096612;28;20294;-64
2023/06/20 08:03:01;;;;;;;11.00;10.20;;;;;;;;;;5096293;28;20203;-63
2023/06/20 08:05:28;;;;;;;11.40;10.40;;;;;;;;;;5096582;28;20235;-63
2023/06/20 08:07:55;;;;;;;12.43;11.50;;;;;;;;;;5096490;28;20221;-63
2023/06/20 08:10:23;;;;;;;12.43;11.43;;;;;;;;;;5095956;28;20250;-63
2023/06/20 08:12:52;;;;;;;11.52;10.73;;;;;;;;;;5095913;28;20199;-63
2023/06/20 08:15:19;;;;;;;12.23;11.32;;;;;;;;;;5096328;28;20284;-63
2023/06/20 08:17:47;;;;;;;11.73;10.70;;;;;;;;;;5096535;28;20314;-63
2023/06/20 08:20:14;;;;;;;11.10;10.30;;;;;;;;;;5096584;28;20310;-63
2023/06/20 08:22:42;;;;;;;11.38;10.52;;;;;;;;;;5096705;28;20294;-64
2023/06/20 08:25:10;;;;;;;10.65;9.77;;;;;;;;;;5095465;28;20306;-63
2023/06/20 08:27:37;;;;;;;10.45;9.65;;;;;;;;;;5095444;28;20286;-64
2023/06/20 08:30:07;;;;;;;10.95;10.15;;;;;;;;;;5095212;28;20298;-63
2023/06/20 08:32:36;;;;;;;10.75;9.85;;;;;;;;;;5095897;28;20602;-63
2023/06/20 08:35:04;;;;;;;10.82;10.02;;;;;;;;;;5095142;28;20298;-63
2023/06/20 08:37:32;;;;;;;11.18;10.38;;;;;;;;;;5095235;28;20246;-63
2023/06/20 08:39:59;;;;;;;11.15;10.35;;;;;;;;;;5095467;28;20214;-63
2023/06/20 08:42:30;;;;;;;10.73;9.85;;;;;;;;;;5095615;28;20200;-64
2023/06/20 08:44:58;;;;;;;10.80;10.00;;;;;;;;;;5095303;28;20204;-63
2023/06/20 08:47:27;;;;;;;11.07;10.25;;;;;;;;;;5095244;28;20242;-63
2023/06/20 08:49:54;;;;;;;10.13;9.32;;;;;;;;;;5095119;28;20208;-63
2023/06/20 08:52:26;;;;;;;10.88;10.05;;;;;;;;;;5095086;28;20300;-63
2023/06/20 08:54:53;;;;;;;10.65;9.85;;;;;;;;;;5094748;28;20290;-64
2023/06/20 08:57:22;;;;;;;10.93;10.13;;;;;;;;;;5094987;28;20591;-63
2023/06/20 08:59:50;;;;;;;10.35;9.55;;;;;;;;;;5094673;28;20286;-63
2023/06/20 09:02:18;;;;;;;10.70;9.98;;;;;;;;;;5094732;28;20199;-63
2023/06/20 09:04:54;;;;;;;10.98;10.18;;;;;;;;;;5095603;28;20208;-64
2023/06/20 09:07:22;;;;;;;10.07;9.38;;;;;;;;;;5099465;28;20294;-64
2023/06/20 09:09:50;;;;;;;10.77;9.98;;;;;;;;;;5099417;28;20211;-63
2023/06/20 09:12:17;;;;;;;10.65;9.85;;;;;;;;;;5099338;28;20294;-64
2023/06/20 09:14:47;;;;;;;10.63;9.85;;;;;;;;;;5099203;28;20634;-63
2023/06/20 09:17:15;;;;;;;10.25;9.55;;;;;;;;;;5098929;28;20223;-63
2023/06/20 09:19:43;;;;;;;10.18;9.48;;;;;;;;;;5098506;28;20203;-63
2023/06/20 09:22:13;;;;;;;11.07;10.13;;;;;;;;;;5099268;28;20207;-64
2023/06/20 09:24:44;;;;;;;9.73;9.10;;;;;;;;;;5098880;28;20195;-63
2023/06/20 09:27:12;;;;;;;10.15;9.35;;;;;;;;;;5098717;28;20256;-63
2023/06/20 09:29:50;;;;;;;10.30;9.50;;;;;;;;;;5098658;28;20207;-64
2023/06/20 09:32:21;;;;;;;9.75;9.05;;;;;;;;;;5098030;28;20212;-63
2023/06/20 09:34:48;;;;;;;10.02;9.23;;;;;;;;;;5098366;28;20294;-63
2023/06/20 09:37:18;;;;;;;9.90;9.15;;;;;;;;;;5097650;28;20266;-63
2023/06/20 09:39:45;;;;;;;10.30;9.50;;;;;;;;;;5097637;28;20837;-63
2023/06/20 09:42:14;;;;;;;9.75;9.00;;;;;;;;;;5097504;28;20217;-63
2023/06/20 09:44:41;;;;;;;9.95;9.25;;;;;;;;;;5098007;28;20196;-64
2023/06/20 09:47:09;;;;;;;10.85;10.05;;;;;;;;;;5097908;28;20243;-63
2023/06/20 09:49:36;;;;;;;10.63;9.82;;;;;;;;;;5097491;28;20242;-64
2023/06/20 09:52:05;;;;;;;10.10;9.40;;;;;;;;;;5097813;28;20474;-64
2023/06/20 09:54:37;;;;;;;9.80;9.00;;;;;;;;;;5097655;28;20295;-63
2023/06/20 09:57:06;;;;;;;9.77;8.98;;;;;;;;;;5097927;28;20223;-63
2023/06/20 09:59:33;;;;;;;9.85;9.15;;;;;;;;;;5097607;28;20635;-63
2023/06/20 10:02:02;;;;;;;10.25;9.38;;;;;;;;;;5097612;28;20226;-64
2023/06/20 10:04:30;;;;;;;10.00;9.30;;;;;;;;;;5098397;28;20200;-64
2023/06/20 10:06:58;;;;;;;9.50;8.85;;;;;;;;;;5098267;28;20507;-63
2023/06/20 10:09:27;;;;;;;10.30;9.60;;;;;;;;;;5096919;28;20265;-63
2023/06/20 10:11:56;;;;;;;10.15;9.45;;;;;;;;;;5097284;28;20204;-63
2023/06/20 10:14:23;;;;;;;9.93;9.23;;;;;;;;;;5097117;28;20242;-63
2023/06/20 10:16:54;;;;;;;9.27;8.57;;;;;;;;;;5096618;28;20285;-63
2023/06/20 10:19:21;;;;;;;9.13;8.52;;;;;;;;;;5097144;28;20231;-63
2023/06/20 10:21:59;;;;;;;9.20;8.60;;;;;;;;;;5097112;28;20265;-64
2023/06/20 10:24:28;;;;;;;8.90;8.30;;;;;;;;;;5097001;28;20221;-64
2023/06/20 10:27:00;;;;;;;8.93;8.32;;;;;;;;;;5096477;28;20203;-64
2023/06/20 10:29:27;;;;;;;9.68;8.88;;;;;;;;;;5096144;28;20215;-64
2023/06/20 10:31:56;;;;;;;8.77;8.18;;;;;;;;;;5096245;28;20664;-64
2023/06/20 10:34:30;;;;;;;9.40;8.70;;;;;;;;;;5096445;28;20203;-63
2023/06/20 10:37:10;;;;;;;9.15;8.55;;;;;;;;;;5096878;28;20329;-63
2023/06/20 10:39:37;;;;;;;8.23;7.68;;;;;;;;;;5097663;28;20200;-64
2023/06/20 10:42:09;;;;;;;8.73;8.13;;;;;;;;;;5097180;28;20278;-64
2023/06/20 10:44:36;;;;;;;8.70;8.10;;;;;;;;;;5097187;28;20290;-64
2023/06/20 10:47:04;;;;;;;8.00;7.35;;;;;;;;;;5097401;28;20473;-64
2023/06/20 10:49:33;;;;;;;7.20;6.70;;;;;;;;;;5095688;28;20207;-64
2023/06/20 10:52:00;;;;;;;7.80;7.22;;;;;;;;;;5096102;28;20294;-64
2023/06/20 10:54:34;;;;;;;8.20;7.60;;;;;;;;;;5096273;28;20203;-64
2023/06/20 10:57:01;;;;;;;7.50;7.00;;;;;;;;;;5096488;28;20284;-64
2023/06/20 10:59:30;;;;;;;7.07;6.57;;;;;;;;;;5096465;28;20311;-64
2023/06/20 11:01:57;;;;;;;7.45;6.95;;;;;;;;;;5095518;28;20196;-64
2023/06/20 11:04:25;;;;;;;7.43;6.82;;;;;;;;;;5095456;28;20318;-64
2023/06/20 11:06:52;;;;;;;7.43;6.72;;;;;;;;;;5095997;28;20204;-63
2023/06/20 11:09:20;;;;;;;7.15;6.65;;;;;;;;;;5094925;28;20227;-64
2023/06/20 11:11:48;;;;;;;7.03;6.53;;;;;;;;;;5095457;28;20770;-64
2023/06/20 11:14:16;;;;;;;6.75;6.25;;;;;;;;;;5095557;28;20202;-64
2023/06/20 11:16:45;;;;;;;6.80;6.30;;;;;;;;;;5095572;28;20249;-64
2023/06/20 11:19:13;;;;;;;6.82;6.32;;;;;;;;;;5095591;28;20721;-64
2023/06/20 11:21:41;;;;;;;6.90;6.40;;;;;;;;;;5095319;28;20553;-64
2023/06/20 11:24:08;;;;;;;6.78;6.28;;;;;;;;;;5095776;28;20200;-64
2023/06/20 11:26:36;;;;;;;6.88;6.10;;;;;;;;;;5095383;28;20200;-64
2023/06/20 11:29:04;;;;;;;6.28;5.88;;;;;;;;;;5095122;28;20287;-64
2023/06/20 11:31:32;;;;;;;5.57;5.18;;;;;;;;;;5095723;28;20803;-63
2023/06/20 11:34:07;;;;;;;5.80;5.40;;;;;;;;;;5095725;28;20310;-64
2023/06/20 11:36:35;;;;;;;5.47;5.07;;;;;;;;;;5094630;28;20838;-64
2023/06/20 11:39:06;;;;;;;5.60;5.20;;;;;;;;;;5094869;28;20249;-64
2023/06/20 11:41:33;;;;;;;5.10;4.80;;;;;;;;;;5095115;28;20203;-64
2023/06/20 11:44:01;;;;;;;4.90;4.60;;;;;;;;;;5095173;28;20288;-64
2023/06/20 11:46:29;;;;;;;5.13;4.80;;;;;;;;;;5094432;28;20492;-64
2023/06/20 11:48:57;;;;;;;5.30;4.90;;;;;;;;;;5095343;28;20198;-64
2023/06/20 11:51:29;;;;;;;4.93;4.63;;;;;;;;;;5094024;28;20261;-64
2023/06/20 11:54:04;;;;;;;4.75;4.35;;;;;;;;;;5095393;28;20274;-64
2023/06/20 11:56:32;;;;;;;5.10;4.70;;;;;;;;;;5095819;28;20758;-63
2023/06/20 11:58:59;;;;;;;4.80;4.40;;;;;;;;;;5094669;28;20330;-64
2023/06/20 12:01:26;;;;;;;4.80;4.50;;;;;;;;;;5094679;28;20222;-64
2023/06/20 12:04:03;;;;;;;4.95;4.55;;;;;;;;;;5095391;28;20607;-64
2023/06/20 12:06:33;;;;;;;4.82;4.43;;;;;;;;;;5094837;28;20294;-64
2023/06/20 12:09:02;;;;;;;4.32;3.95;;;;;;;;;;5094457;28;20200;-64
2023/06/20 12:11:29;;;;;;;4.15;3.83;;;;;;;;;;5094275;28;20196;-64
2023/06/20 12:13:57;;;;;;;4.60;3.80;;;;;;;;;;5094130;28;20203;-64
2023/06/20 12:16:25;;;;;;;4.00;3.70;;;;;;;;;;5093749;28;20206;-64
2023/06/20 12:18:53;;;;;;;4.32;4.00;;;;;;;;;;5094687;28;20227;-64
2023/06/20 12:21:20;;;;;;;4.05;3.75;;;;;;;;;;5094700;28;20238;-64
2023/06/20 12:23:49;;;;;;;4.50;4.10;;;;;;;;;;5094935;28;20196;-63
2023/06/20 12:26:17;;;;;;;4.00;3.70;;;;;;;;;;5094473;28;20242;-64
2023/06/20 12:28:45;;;;;;;4.18;3.88;;;;;;;;;;5093875;28;20299;-64
2023/06/20 12:31:12;;;;;;;4.38;4.05;;;;;;;;;;5094276;28;20751;-64
2023/06/20 12:33:40;;;;;;;4.20;3.90;;;;;;;;;;5094400;28;20200;-64
2023/06/20 12:36:08;;;;;;;3.97;3.67;;;;;;;;;;5094205;28;20282;-64
2023/06/20 12:38:36;;;;;;;4.40;3.83;;;;;;;;;;5094597;28;20242;-64
2023/06/20 12:41:05;;;;;;;5.82;4.15;;;;;;;;;;5093142;28;20226;-64
2023/06/20 12:43:33;;;;;;;4.30;3.90;;;;;;;;;;5093798;28;20309;-64
2023/06/20 12:46:00;;;;;;;4.70;4.40;;;;;;;;;;5092904;28;20239;-64
2023/06/20 12:48:28;;;;;;;4.90;4.50;;;;;;;;;;5094277;28;20568;-64
2023/06/20 12:50:55;;;;;;;5.07;4.68;;;;;;;;;;5092984;28;20206;-64
2023/06/20 12:53:23;;;;;;;5.10;4.70;;;;;;;;;;5094662;28;20325;-64
2023/06/20 12:55:51;;;;;;;5.20;4.70;;;;;;;;;;5094604;28;20318;-64
2023/06/20 12:58:19;;;;;;;4.97;4.63;;;;;;;;;;5093831;28;20227;-64
2023/06/20 13:00:48;;;;;;;5.30;4.80;;;;;;;;;;5093700;28;20594;-64
2023/06/20 13:03:17;;;;;;;4.93;4.53;;;;;;;;;;5093810;28;20587;-64
2023/06/20 13:05:44;;;;;;;5.22;4.65;;;;;;;;;;5093877;28;20794;-64
2023/06/20 13:08:13;;;;;;;5.05;4.65;;;;;;;;;;5085930;28;20294;-64
2023/06/20 13:10:41;;;;;;;5.32;4.82;;;;;;;;;;5093861;28;20231;-64
2023/06/20 13:13:08;;;;;;;5.03;4.63;;;;;;;;;;5094148;28;20214;-64
2023/06/20 13:15:37;;;;;;;4.93;4.53;;;;;;;;;;5093707;28;20204;-64
2023/06/20 13:18:08;;;;;;;5.00;4.53;;;;;;;;;;5094272;28;20223;-64
2023/06/20 13:20:36;;;;;;;4.88;4.47;;;;;;;;;;5094006;28;20199;-65
2023/06/20 13:23:03;;;;;;;5.03;4.63;;;;;;;;;;5094352;28;20200;-64
2023/06/20 13:25:31;;;;;;;4.68;4.28;;;;;;;;;;5093858;28;20210;-64
2023/06/20 13:27:58;;;;;;;4.65;4.25;;;;;;;;;;5093715;28;20207;-64
2023/06/20 13:30:25;;;;;;;4.43;4.10;;;;;;;;;;5093360;28;20670;-64
2023/06/20 13:32:55;;;;;;;5.50;5.00;;;;;;;;;;5094348;28;20287;-64
2023/06/20 13:35:23;;;;;;;4.45;4.05;;;;;;;;;;5092625;28;20200;-64
2023/06/20 13:37:50;;;;;;;4.47;4.10;;;;;;;;;;5092692;28;20660;-64
2023/06/20 13:40:22;;;;;;;4.50;4.18;;;;;;;;;;5093318;28;20204;-64
2023/06/20 13:42:49;;;;;;;4.70;4.30;;;;;;;;;;5093413;28;20204;-64
2023/06/20 13:45:18;;;;;;;4.82;4.32;;;;;;;;;;5092978;28;20436;-63
2023/06/20 13:47:46;;;;;;;4.63;4.18;;;;;;;;;;5092883;28;20299;-64
2023/06/20 13:50:15;;;;;;;4.32;3.88;;;;;;;;;;5093201;28;20260;-64
2023/06/20 13:52:43;;;;;;;4.05;3.63;;;;;;;;;;5095636;28;20203;-64
2023/06/20 13:55:11;;;;;;;4.25;3.85;;;;;;;;;;5096442;28;20564;-64
2023/06/20 13:57:39;;;;;;;4.57;4.13;;;;;;;;;;5096743;28;20760;-64
2023/06/20 14:00:11;;;;;;;4.50;4.10;;;;;;;;;;5096720;28;20199;-64
2023/06/20 14:02:39;;;;;;;4.35;3.83;;;;;;;;;;5095488;28;20288;-64
2023/06/20 14:05:06;;;;;;;4.40;4.00;;;;;;;;;;5096350;28;20306;-64
2023/06/20 14:07:36;;;;;;;4.28;3.88;;;;;;;;;;5097007;28;20204;-64
2023/06/20 14:10:03;;;;;;;3.80;3.50;;;;;;;;;;5095938;28;20710;-64
2023/06/20 14:12:31;;;;;;;4.40;3.92;;;;;;;;;;5097011;28;20264;-65
2023/06/20 14:14:59;;;;;;;4.30;3.90;;;;;;;;;;5096540;28;20203;-64
2023/06/20 14:17:26;;;;;;;4.40;4.00;;;;;;;;;;5095111;28;20203;-64
2023/06/20 14:19:54;;;;;;;5.97;4.15;;;;;;;;;;5095847;28;20223;-64
2023/06/20 14:22:21;;;;;;;4.40;3.65;;;;;;;;;;5097317;28;20302;-64
2023/06/20 14:24:50;;;;;;;4.15;3.75;;;;;;;;;;5097080;28;20306;-64
2023/06/20 14:27:19;;;;;;;4.60;4.20;;;;;;;;;;5095930;28;20499;-64
2023/06/20 14:29:47;;;;;;;4.28;3.88;;;;;;;;;;5096561;28;20200;-64
2023/06/20 14:32:14;;;;;;;4.07;3.67;;;;;;;;;;5087901;28;20215;-64
2023/06/20 14:34:43;;;;;;;4.10;3.80;;;;;;;;;;5096519;28;20597;-64
2023/06/20 14:37:11;;;;;;;4.38;3.90;;;;;;;;;;5096191;28;20733;-64
2023/06/20 14:39:38;;;;;;;4.13;3.72;;;;;;;;;;5095969;28;20288;-64
2023/06/20 14:42:07;;;;;;;4.80;4.30;;;;;;;;;;5095002;28;20202;-64
2023/06/20 14:44:35;;;;;;;4.55;4.15;;;;;;;;;;5095841;28;20302;-64